Terminal Aerodrome Forecast
Issued by NWS

Home | Current Version | Previous Version | Graphics & Text | Print | Product List | Glossary On
Versions: 1 2 3 4 5 6 7 8 9 10 11 12 13 14 15 16 17 18 19 20
000
FTUS43 KOAX 061127
TAFCDR
TAF
KCDR 061127Z 0612/0712 01012KT 3SM -DZ BR SCT020 OVC040
      TEMPO 0612/0616 1SM -RA BR OVC020
     FM061600 02010KT 5SM -RA BR OVC015
     FM062000 04010KT P6SM VCSH BKN040
     FM070200 12007KT P6SM BKN045=

USA.gov is the U.S. government's official web portal to all federal, state and local government web resources and services.